Time;durP1;ratioP1;P1;durP2;ratioP2;P2;SDS_P1;SDS_P2;PMS_P1;PMS_P2;Temp;Humidity;BMP_temperature;BMP_pressure;BME280_temperature;BME280_humidity;BME280_pressure;Samples;Min_cycle;Max_cycle;Signal;HPM_P1;HPM_P2
2022/07/17 00:02:21;;;;;;;1.88;1.10;;;24.60;56.90;;;;;;4856687;29;20033;-76
2022/07/17 00:04:47;;;;;;;3.13;1.35;;;24.60;57.20;;;;;;4841975;29;20082;-76
2022/07/17 00:07:13;;;;;;;4.05;1.40;;;24.60;57.10;;;;;;4857592;29;20068;-76
2022/07/17 00:09:38;;;;;;;3.03;1.35;;;24.50;57.30;;;;;;4856565;29;20064;-77
2022/07/17 00:12:04;;;;;;;1.90;1.27;;;24.50;57.30;;;;;;4859185;29;20029;-77
2022/07/17 00:14:30;;;;;;;3.25;1.17;;;24.50;57.30;;;;;;4859244;29;20036;-77
2022/07/17 00:16:57;;;;;;;9.57;1.35;;;24.40;57.30;;;;;;4854287;29;20026;-77
2022/07/17 00:19:24;;;;;;;5.15;1.45;;;24.40;57.00;;;;;;4854410;29;20021;-77
2022/07/17 00:21:49;;;;;;;3.30;1.40;;;24.40;57.20;;;;;;4850914;29;20030;-77
2022/07/17 00:24:19;;;;;;;4.10;1.27;;;24.30;57.20;;;;;;4869899;29;20045;-77
2022/07/17 00:26:47;;;;;;;2.30;1.35;;;24.20;57.30;;;;;;4852634;29;20026;-77
2022/07/17 00:29:13;;;;;;;5.07;1.30;;;24.30;57.50;;;;;;4856910;29;20502;-77
2022/07/17 00:31:38;;;;;;;3.42;1.30;;;24.30;57.00;;;;;;4857356;29;20050;-77
2022/07/17 00:34:04;;;;;;;2.25;1.38;;;24.30;57.10;;;;;;4850057;29;20113;-77
2022/07/17 00:36:30;;;;;;;5.13;1.40;;;24.30;57.40;;;;;;4856025;29;20026;-76
2022/07/17 00:38:55;;;;;;;2.83;1.50;;;24.30;57.30;;;;;;4853661;29;20026;-77
2022/07/17 00:41:21;;;;;;;5.70;1.50;;;24.30;56.90;;;;;;4857583;29;20089;-77
2022/07/17 00:43:47;;;;;;;3.47;1.27;;;24.20;57.40;;;;;;4856595;29;20505;-77
2022/07/17 00:46:13;;;;;;;2.90;1.48;;;24.20;57.30;;;;;;4857843;29;20041;-77
2022/07/17 00:48:39;;;;;;;4.85;1.27;;;24.20;57.10;;;;;;4858920;29;20085;-77
2022/07/17 00:51:04;;;;;;;3.42;1.38;;;24.30;57.20;;;;;;4854215;29;20050;-77
2022/07/17 00:53:35;;;;;;;3.97;1.30;;;24.20;56.80;;;;;;4852619;29;20046;-77
2022/07/17 00:56:05;;;;;;;3.47;1.50;;;24.10;57.20;;;;;;4850931;29;20026;-76
2022/07/17 00:58:35;;;;;;;3.15;1.20;;;24.10;57.30;;;;;;4854611;29;20105;-77
2022/07/17 01:01:06;;;;;;;2.85;1.30;;;24.00;57.30;;;;;;4852836;29;20384;-76
2022/07/17 01:03:32;;;;;;;5.00;1.40;;;24.00;57.60;;;;;;4856451;29;20060;-77
2022/07/17 01:05:57;;;;;;;2.05;1.33;;;24.00;57.50;;;;;;4855171;29;20140;-77
2022/07/17 01:08:23;;;;;;;5.78;1.35;;;24.00;57.20;;;;;;4856889;29;20086;-77
2022/07/17 01:10:49;;;;;;;3.15;1.20;;;24.00;57.40;;;;;;4858355;29;20064;-77
2022/07/17 01:13:15;;;;;;;3.55;1.33;;;24.00;57.40;;;;;;4858046;29;20045;-77
2022/07/17 01:15:41;;;;;;;3.47;1.30;;;23.90;57.20;;;;;;4853051;29;20037;-77
2022/07/17 01:18:12;;;;;;;2.60;1.40;;;23.90;57.50;;;;;;4849907;29;20033;-77
2022/07/17 01:20:40;;;;;;;4.35;1.42;;;23.90;57.60;;;;;;4853420;29;20052;-77
2022/07/17 01:23:06;;;;;;;4.35;1.35;;;23.90;57.50;;;;;;4852128;29;20033;-78
2022/07/17 01:25:32;;;;;;;3.75;1.30;;;23.90;57.30;;;;;;4854303;29;20034;-77
2022/07/17 01:27:58;;;;;;;2.97;1.60;;;23.80;57.40;;;;;;4855172;29;20029;-78
2022/07/17 01:30:23;;;;;;;2.65;1.42;;;23.80;57.30;;;;;;4852271;29;20094;-78
2022/07/17 01:32:49;;;;;;;3.63;1.52;;;23.70;57.40;;;;;;4844578;29;20026;-80
2022/07/17 01:35:15;;;;;;;3.42;1.67;;;23.70;57.50;;;;;;4854217;29;20029;-75
2022/07/17 01:37:42;;;;;;;6.38;1.75;;;23.70;57.60;;;;;;4853340;29;20443;-76
2022/07/17 01:40:12;;;;;;;2.90;1.60;;;23.70;58.00;;;;;;4856724;29;20025;-82
2022/07/17 01:42:41;;;;;;;4.38;1.50;;;23.80;57.60;;;;;;4855157;29;20057;-76
2022/07/17 01:45:08;;;;;;;3.50;1.58;;;23.80;57.70;;;;;;4857665;29;20037;-77
2022/07/17 01:47:34;;;;;;;5.25;1.40;;;23.60;58.30;;;;;;4858136;29;20029;-81
2022/07/17 01:50:02;;;;;;;3.63;1.40;;;23.50;58.00;;;;;;4859001;29;20033;-82
2022/07/17 01:52:28;;;;;;;2.65;1.42;;;23.50;58.30;;;;;;4858983;29;20054;-81
2022/07/17 01:54:54;;;;;;;5.53;1.65;;;23.50;58.50;;;;;;4859249;29;20033;-83
2022/07/17 01:57:21;;;;;;;8.15;1.63;;;23.50;58.40;;;;;;4873480;29;20049;-79
2022/07/17 01:59:47;;;;;;;3.83;1.60;;;23.50;57.80;;;;;;4859147;29;20073;-78
2022/07/17 02:02:15;;;;;;;6.13;1.50;;;23.50;58.10;;;;;;4858705;29;20044;-79
2022/07/17 02:04:41;;;;;;;3.40;1.30;;;23.40;58.40;;;;;;4857826;29;20190;-79
2022/07/17 02:07:08;;;;;;;4.88;1.52;;;23.30;58.10;;;;;;4858729;29;20065;-78
2022/07/17 02:09:35;;;;;;;3.20;1.60;;;23.40;58.30;;;;;;4859015;29;20029;-78
2022/07/17 02:12:00;;;;;;;8.60;2.10;;;23.40;58.50;;;;;;4858807;29;20045;-79
2022/07/17 02:14:26;;;;;;;2.65;1.40;;;23.50;58.30;;;;;;4858826;29;20028;-78
2022/07/17 02:16:53;;;;;;;5.45;1.40;;;23.50;58.10;;;;;;4858813;29;20033;-78
2022/07/17 02:19:19;;;;;;;4.90;1.50;;;23.50;58.00;;;;;;4858952;29;20066;-78
2022/07/17 02:21:44;;;;;;;4.57;1.40;;;23.40;58.00;;;;;;4858671;29;20054;-78
2022/07/17 02:24:10;;;;;;;5.75;1.60;;;23.40;58.50;;;;;;4858863;29;20080;-78
2022/07/17 02:26:36;;;;;;;3.83;1.67;;;23.30;58.50;;;;;;4858779;29;20101;-78
2022/07/17 02:29:01;;;;;;;6.13;1.58;;;23.30;58.60;;;;;;4858687;29;20108;-78
2022/07/17 02:31:27;;;;;;;2.92;1.42;;;23.30;58.30;;;;;;4858567;29;20050;-78
2022/07/17 02:33:53;;;;;;;6.72;1.40;;;23.30;58.30;;;;;;4858387;29;20033;-78
2022/07/17 02:36:18;;;;;;;3.67;1.23;;;23.30;58.50;;;;;;4858426;29;20034;-78
2022/07/17 02:38:44;;;;;;;5.22;1.60;;;23.30;58.30;;;;;;4858463;29;20456;-78
2022/07/17 02:41:10;;;;;;;4.55;1.30;;;23.30;58.30;;;;;;4872920;29;20034;-78
2022/07/17 02:43:36;;;;;;;3.10;1.50;;;23.20;58.30;;;;;;4858791;29;20522;-78
2022/07/17 02:46:02;;;;;;;5.60;1.60;;;23.10;58.80;;;;;;4858452;29;20200;-78
2022/07/17 02:48:29;;;;;;;2.28;1.38;;;23.10;58.40;;;;;;4858728;29;20479;-78
2022/07/17 02:50:54;;;;;;;3.90;1.30;;;23.10;58.60;;;;;;4858228;29;20413;-78
2022/07/17 02:53:20;;;;;;;5.05;1.30;;;23.10;58.60;;;;;;4858168;29;20033;-78
2022/07/17 02:55:46;;;;;;;6.47;1.60;;;23.10;58.70;;;;;;4857062;29;20036;-78
2022/07/17 02:58:11;;;;;;;3.78;1.52;;;23.00;58.90;;;;;;4858224;29;20451;-78
2022/07/17 03:00:37;;;;;;;5.70;1.50;;;23.00;58.70;;;;;;4858170;29;20026;-78
2022/07/17 03:03:03;;;;;;;4.05;1.60;;;23.00;58.80;;;;;;4858560;29;20022;-79
2022/07/17 03:05:29;;;;;;;5.18;1.77;;;23.10;58.90;;;;;;4858566;29;20386;-78
2022/07/17 03:07:55;;;;;;;2.50;1.38;;;23.10;59.00;;;;;;4858019;29;20533;-79
2022/07/17 03:10:20;;;;;;;6.88;1.58;;;23.10;58.80;;;;;;4858229;29;20037;-79
2022/07/17 03:12:46;;;;;;;5.22;1.60;;;23.00;59.00;;;;;;4858282;29;20030;-79
2022/07/17 03:15:12;;;;;;;4.72;1.55;;;23.00;58.90;;;;;;4857664;29;20037;-79
2022/07/17 03:17:39;;;;;;;2.60;1.40;;;23.00;58.90;;;;;;4857870;29;20194;-79
2022/07/17 03:20:05;;;;;;;2.00;1.42;;;23.00;59.20;;;;;;4858080;29;20029;-79
2022/07/17 03:22:31;;;;;;;2.90;1.60;;;22.90;59.10;;;;;;4858302;29;20053;-79
2022/07/17 03:24:56;;;;;;;8.43;1.80;;;22.90;59.50;;;;;;4858036;29;20061;-79
2022/07/17 03:27:22;;;;;;;4.18;1.67;;;22.80;59.60;;;;;;4872341;29;20112;-79
2022/07/17 03:29:48;;;;;;;3.53;1.50;;;22.80;59.80;;;;;;4872077;29;20422;-79
2022/07/17 03:32:14;;;;;;;7.88;1.95;;;22.80;59.50;;;;;;4857895;29;20037;-79
2022/07/17 03:34:39;;;;;;;5.28;1.58;;;22.80;59.50;;;;;;4857633;29;20390;-79
2022/07/17 03:37:05;;;;;;;3.50;1.60;;;22.80;59.80;;;;;;4857765;29;20034;-79
2022/07/17 03:39:31;;;;;;;6.82;1.65;;;22.80;59.50;;;;;;4857985;29;20053;-79
2022/07/17 03:41:56;;;;;;;7.53;1.80;;;22.70;60.00;;;;;;4857911;29;20092;-79
2022/07/17 03:44:22;;;;;;;3.92;1.45;;;22.70;59.90;;;;;;4857902;29;20029;-79
2022/07/17 03:46:49;;;;;;;9.13;1.58;;;22.70;60.30;;;;;;4857757;29;20518;-79
2022/07/17 03:49:14;;;;;;;5.22;1.63;;;22.70;60.00;;;;;;4857907;29;20038;-79
2022/07/17 03:51:41;;;;;;;7.03;1.83;;;22.60;60.40;;;;;;4857647;29;20491;-78
2022/07/17 03:54:06;;;;;;;4.68;1.65;;;22.60;60.80;;;;;;4857543;29;20558;-78
2022/07/17 03:56:32;;;;;;;5.35;1.90;;;22.60;60.30;;;;;;4857716;29;20059;-79
2022/07/17 03:58:58;;;;;;;4.05;1.58;;;22.60;60.30;;;;;;4857674;29;20399;-78
2022/07/17 04:01:24;;;;;;;4.25;1.58;;;22.60;60.40;;;;;;4857813;29;20094;-78
2022/07/17 04:03:49;;;;;;;5.55;1.50;;;22.60;60.40;;;;;;4857392;29;20140;-78
2022/07/17 04:06:15;;;;;;;3.47;1.65;;;22.60;59.80;;;;;;4857727;29;20041;-78
2022/07/17 04:08:41;;;;;;;5.50;1.60;;;22.60;60.20;;;;;;4857711;29;20045;-78
2022/07/17 04:11:06;;;;;;;6.47;1.70;;;22.50;60.40;;;;;;4857428;29;20049;-79
2022/07/17 04:13:32;;;;;;;3.30;1.55;;;22.50;60.40;;;;;;4857536;29;20494;-79
2022/07/17 04:15:59;;;;;;;6.70;1.75;;;22.50;60.90;;;;;;4857488;29;20411;-79
2022/07/17 04:18:30;;;;;;;5.30;1.63;;;22.50;60.40;;;;;;4857232;29;20030;-78
2022/07/17 04:21:00;;;;;;;4.25;1.70;;;22.40;60.70;;;;;;4857513;29;20511;-78
2022/07/17 04:23:26;;;;;;;8.20;1.73;;;22.40;61.00;;;;;;4857493;29;20056;-79
2022/07/17 04:25:53;;;;;;;6.05;1.80;;;22.40;61.10;;;;;;4858980;29;20026;-78
2022/07/17 04:28:19;;;;;;;4.70;1.58;;;22.40;60.70;;;;;;4860879;29;20053;-78
2022/07/17 04:30:44;;;;;;;5.80;1.80;;;22.40;61.40;;;;;;4860620;29;20073;-79
2022/07/17 04:33:10;;;;;;;8.95;1.75;;;22.40;61.30;;;;;;4860781;29;20089;-79
2022/07/17 04:35:36;;;;;;;4.45;1.75;;;22.40;60.80;;;;;;4861017;29;20608;-78
2022/07/17 04:38:04;;;;;;;2.47;1.52;;;22.50;61.40;;;;;;4860593;29;20029;-79
2022/07/17 04:40:30;;;;;;;7.43;1.83;;;22.50;61.30;;;;;;4860462;29;20113;-79
2022/07/17 04:42:56;;;;;;;5.15;1.90;;;22.50;61.10;;;;;;4860499;29;20026;-79
2022/07/17 04:45:22;;;;;;;7.35;1.70;;;22.50;61.20;;;;;;4860407;29;20037;-79
2022/07/17 04:47:47;;;;;;;10.25;2.10;;;22.50;61.20;;;;;;4860269;29;20034;-79
2022/07/17 04:50:13;;;;;;;4.45;1.70;;;22.40;61.00;;;;;;4860376;29;20030;-78
2022/07/17 04:52:38;;;;;;;3.72;1.58;;;22.40;61.20;;;;;;4860346;29;20535;-78
2022/07/17 04:55:05;;;;;;;5.00;1.67;;;22.40;61.50;;;;;;4860375;29;20086;-79
2022/07/17 04:57:31;;;;;;;6.43;1.60;;;22.40;62.40;;;;;;4860199;29;20041;-78
2022/07/17 04:59:56;;;;;;;5.80;1.80;;;22.40;61.80;;;;;;4860023;29;20021;-78
2022/07/17 05:02:23;;;;;;;4.13;1.58;;;22.30;61.90;;;;;;4860140;29;20104;-79
2022/07/17 05:04:49;;;;;;;5.63;1.85;;;22.30;61.80;;;;;;4860007;29;20018;-79
2022/07/17 05:07:15;;;;;;;3.67;1.60;;;22.30;62.00;;;;;;4860179;29;20511;-79
2022/07/17 05:09:41;;;;;;;8.55;1.77;;;22.40;61.80;;;;;;4860096;29;20026;-79
2022/07/17 05:12:08;;;;;;;2.65;1.30;;;22.50;62.10;;;;;;4860321;29;20033;-79
2022/07/17 05:14:34;;;;;;;4.28;1.77;;;22.50;62.00;;;;;;4860013;29;20025;-79
2022/07/17 05:17:00;;;;;;;4.85;1.67;;;22.50;61.70;;;;;;4859791;29;20055;-79
2022/07/17 05:19:26;;;;;;;8.60;1.75;;;22.50;62.00;;;;;;4859719;29;20033;-78
2022/07/17 05:21:51;;;;;;;5.72;1.83;;;22.60;61.70;;;;;;4869817;29;20037;-78
2022/07/17 05:24:17;;;;;;;6.07;1.50;;;22.60;62.10;;;;;;4870609;29;20033;-78
2022/07/17 05:26:43;;;;;;;6.57;1.75;;;22.70;61.70;;;;;;4856553;29;20226;-78
2022/07/17 05:29:08;;;;;;;8.05;2.25;;;22.70;61.30;;;;;;4851918;29;20022;-77
2022/07/17 05:31:34;;;;;;;4.65;1.50;;;22.60;61.80;;;;;;4850044;29;20539;-78
2022/07/17 05:34:00;;;;;;;4.25;1.85;;;22.70;62.00;;;;;;4847128;29;20082;-78
2022/07/17 05:36:26;;;;;;;5.78;1.58;;;22.80;61.90;;;;;;4842963;29;20052;-78
2022/07/17 05:38:51;;;;;;;3.03;1.80;;;22.80;61.90;;;;;;4845412;29;20022;-78
2022/07/17 05:41:17;;;;;;;4.18;1.63;;;22.80;61.80;;;;;;4846566;29;20038;-78
2022/07/17 05:43:43;;;;;;;5.80;1.52;;;22.90;61.60;;;;;;4851040;29;20139;-78
2022/07/17 05:46:09;;;;;;;8.52;1.67;;;22.90;61.60;;;;;;4845624;29;20037;-78
2022/07/17 05:48:34;;;;;;;7.72;1.83;;;22.90;61.60;;;;;;4857051;29;20048;-78
2022/07/17 05:51:00;;;;;;;3.85;1.83;;;23.00;61.60;;;;;;4857187;29;20079;-78
2022/07/17 05:53:25;;;;;;;4.43;1.67;;;23.10;61.60;;;;;;4848613;29;20062;-77
2022/07/17 05:55:51;;;;;;;4.13;1.38;;;23.10;61.50;;;;;;4847675;29;20033;-78
2022/07/17 05:58:17;;;;;;;5.72;1.50;;;23.20;61.10;;;;;;4850686;29;20022;-78
2022/07/17 06:00:44;;;;;;;4.40;1.98;;;23.20;61.40;;;;;;4852707;29;20081;-78
2022/07/17 06:03:10;;;;;;;8.35;2.00;;;23.30;60.70;;;;;;4843178;29;20085;-77
2022/07/17 06:05:36;;;;;;;5.22;2.00;;;23.20;61.60;;;;;;4855413;29;20124;-77
2022/07/17 06:08:01;;;;;;;2.88;1.42;;;23.30;61.40;;;;;;4853762;29;20629;-76
2022/07/17 06:10:28;;;;;;;3.58;1.75;;;23.40;61.20;;;;;;4856634;29;20124;-79
2022/07/17 06:12:54;;;;;;;12.98;8.00;;;23.40;60.90;;;;;;4855102;29;20407;-79
2022/07/17 06:15:20;;;;;;;8.50;4.25;;;23.40;60.70;;;;;;4857976;29;20037;-79
2022/07/17 06:17:46;;;;;;;8.00;4.82;;;23.60;61.00;;;;;;4850902;29;20029;-78
2022/07/17 06:20:13;;;;;;;9.98;3.33;;;23.60;60.70;;;;;;4848252;29;20431;-78
2022/07/17 06:22:39;;;;;;;5.50;1.95;;;23.60;61.10;;;;;;4853065;29;20475;-78
2022/07/17 06:25:06;;;;;;;4.90;1.90;;;23.60;60.80;;;;;;4849629;29;20576;-82
2022/07/17 06:27:32;;;;;;;5.43;1.60;;;23.70;60.80;;;;;;4854407;29;20030;-81
2022/07/17 06:29:57;;;;;;;10.30;1.80;;;23.70;60.50;;;;;;4852070;29;20387;-81
2022/07/17 06:32:23;;;;;;;4.45;1.50;;;23.80;60.70;;;;;;4854370;29;20040;-82
2022/07/17 06:34:49;;;;;;;5.40;1.63;;;23.80;60.40;;;;;;4846365;29;20057;-81
2022/07/17 06:37:15;;;;;;;6.30;1.50;;;23.90;60.20;;;;;;4840009;29;20038;-81
2022/07/17 06:39:41;;;;;;;6.43;1.50;;;23.90;60.50;;;;;;4845120;29;20376;-83
2022/07/17 06:42:07;;;;;;;3.22;1.98;;;23.90;60.10;;;;;;4848168;29;20022;-82
2022/07/17 06:44:34;;;;;;;5.22;1.45;;;24.00;60.00;;;;;;4852151;29;20066;-81
2022/07/17 06:47:00;;;;;;;7.65;1.83;;;24.20;60.30;;;;;;4851041;29;20022;-83
2022/07/17 06:49:25;;;;;;;4.95;1.75;;;24.20;59.90;;;;;;4852774;29;20450;-82
2022/07/17 06:51:51;;;;;;;3.85;1.98;;;24.20;59.20;;;;;;4868333;29;20033;-81
2022/07/17 06:54:17;;;;;;;5.97;1.50;;;24.20;59.00;;;;;;4853730;29;20033;-81
2022/07/17 06:56:43;;;;;;;5.28;1.75;;;24.30;59.40;;;;;;4856163;29;20033;-81
2022/07/17 06:59:09;;;;;;;10.05;1.88;;;24.40;60.00;;;;;;4855464;29;20394;-81
2022/07/17 07:01:36;;;;;;;5.07;1.33;;;24.50;59.60;;;;;;4857210;29;20046;-81
2022/07/17 07:04:02;;;;;;;3.97;1.48;;;24.60;59.00;;;;;;4862493;29;20380;-81
2022/07/17 07:06:28;;;;;;;4.07;1.92;;;24.70;58.70;;;;;;4849116;29;20041;-81
2022/07/17 07:08:54;;;;;;;4.25;1.60;;;24.80;59.20;;;;;;4851676;29;20033;-81
2022/07/17 07:11:20;;;;;;;4.82;1.27;;;24.80;59.00;;;;;;4850274;29;20045;-81
2022/07/17 07:13:46;;;;;;;3.65;1.50;;;25.00;58.80;;;;;;4852516;29;20025;-82
2022/07/17 07:16:12;;;;;;;5.80;1.63;;;25.00;58.60;;;;;;4851578;29;20038;-81
2022/07/17 07:18:37;;;;;;;3.03;1.45;;;25.10;58.30;;;;;;4854795;29;20037;-81
2022/07/17 07:21:04;;;;;;;4.45;1.58;;;25.20;58.10;;;;;;4853747;29;20102;-81
2022/07/17 07:23:30;;;;;;;2.67;1.50;;;25.20;58.20;;;;;;4855954;29;20025;-81
2022/07/17 07:25:56;;;;;;;6.00;1.50;;;25.40;58.00;;;;;;4856304;29;20037;-81
2022/07/17 07:28:21;;;;;;;4.32;1.42;;;25.40;58.00;;;;;;4851166;29;20026;-81
2022/07/17 07:30:47;;;;;;;3.70;1.58;;;25.50;57.80;;;;;;4851492;29;20072;-81
2022/07/17 07:33:13;;;;;;;3.50;1.40;;;25.70;58.30;;;;;;4847456;29;20126;-81
2022/07/17 07:35:39;;;;;;;6.40;1.48;;;25.80;58.10;;;;;;4847074;29;20078;-81
2022/07/17 07:38:05;;;;;;;7.00;1.52;;;25.80;57.50;;;;;;4850566;29;20026;-81
2022/07/17 07:40:31;;;;;;;4.20;1.60;;;25.90;57.00;;;;;;4846401;29;20076;-81
2022/07/17 07:42:57;;;;;;;7.50;1.67;;;25.90;57.60;;;;;;4850877;29;20113;-81
2022/07/17 07:45:23;;;;;;;5.97;1.50;;;26.00;56.90;;;;;;4849064;29;20108;-81
2022/07/17 07:47:50;;;;;;;4.95;1.63;;;26.10;57.20;;;;;;4851674;29;20033;-84
2022/07/17 07:50:17;;;;;;;3.75;1.33;;;26.10;56.70;;;;;;4851902;29;20046;-80
2022/07/17 07:52:43;;;;;;;7.85;1.42;;;26.20;56.20;;;;;;4852783;29;20100;-81
2022/07/17 07:55:11;;;;;;;6.53;1.52;;;26.30;56.10;;;;;;4854908;29;20068;-82
2022/07/17 07:57:37;;;;;;;4.32;1.40;;;26.40;56.70;;;;;;4853809;29;20025;-81
2022/07/17 08:00:04;;;;;;;3.75;1.45;;;26.50;56.10;;;;;;4856594;29;20443;-82
2022/07/17 08:02:30;;;;;;;3.53;1.70;;;26.60;55.10;;;;;;4855933;29;20029;-81
2022/07/17 08:04:55;;;;;;;3.33;1.45;;;26.60;55.20;;;;;;4846010;29;20040;-81
2022/07/17 08:07:21;;;;;;;3.45;1.58;;;26.60;54.90;;;;;;4852785;29;20054;-81
2022/07/17 08:09:48;;;;;;;4.43;1.52;;;26.70;55.10;;;;;;4852834;29;20026;-80
2022/07/17 08:12:14;;;;;;;8.73;1.67;;;26.80;55.30;;;;;;4855948;29;20042;-81
2022/07/17 08:14:39;;;;;;;3.33;1.50;;;26.90;55.10;;;;;;4853555;29;20475;-82
2022/07/17 08:17:05;;;;;;;4.25;1.60;;;27.00;54.70;;;;;;4857587;29;20041;-81
2022/07/17 08:19:30;;;;;;;2.45;1.42;;;27.00;54.40;;;;;;4855515;29;20018;-81
2022/07/17 08:21:56;;;;;;;5.15;1.50;;;27.10;54.10;;;;;;4858618;29;20040;-81
2022/07/17 08:24:22;;;;;;;4.90;1.63;;;27.10;54.20;;;;;;4858170;29;20026;-81
2022/07/17 08:26:48;;;;;;;3.67;1.20;;;27.20;54.40;;;;;;4859635;29;20034;-81
2022/07/17 08:29:15;;;;;;;2.55;1.50;;;27.30;55.00;;;;;;4847487;29;20083;-81
2022/07/17 08:31:41;;;;;;;6.07;1.70;;;27.50;54.20;;;;;;4849521;29;20151;-82
2022/07/17 08:34:07;;;;;;;3.78;1.30;;;27.60;53.90;;;;;;4855470;29;20034;-81
2022/07/17 08:36:33;;;;;;;4.18;1.42;;;27.70;53.90;;;;;;4854810;29;20408;-81
2022/07/17 08:38:59;;;;;;;4.22;1.60;;;27.80;53.80;;;;;;4854178;29;20026;-81
2022/07/17 08:41:24;;;;;;;8.18;1.83;;;28.00;53.70;;;;;;4846455;29;20060;-79
2022/07/17 08:43:51;;;;;;;5.70;1.50;;;28.10;53.00;;;;;;4850261;29;20495;-82
2022/07/17 08:46:16;;;;;;;3.80;1.40;;;28.20;52.60;;;;;;4854500;29;20033;-77
2022/07/17 08:48:45;;;;;;;7.60;1.65;;;28.30;52.40;;;;;;4852839;29;20041;-77
2022/07/17 08:51:11;;;;;;;7.07;1.58;;;28.40;52.80;;;;;;4855829;29;20402;-77
2022/07/17 08:53:37;;;;;;;4.88;1.58;;;28.50;52.80;;;;;;4856055;29;20030;-79
2022/07/17 08:56:04;;;;;;;4.65;1.55;;;28.50;52.50;;;;;;4855443;29;20025;-79
2022/07/17 08:58:31;;;;;;;3.13;1.40;;;28.70;52.90;;;;;;4858286;29;20496;-80
2022/07/17 09:00:56;;;;;;;5.90;1.50;;;28.70;51.40;;;;;;4857782;29;20491;-79
2022/07/17 09:03:23;;;;;;;6.55;1.73;;;28.80;51.10;;;;;;4859340;29;20064;-81
2022/07/17 09:05:49;;;;;;;5.95;1.70;;;28.80;51.30;;;;;;4850097;29;20407;-81
2022/07/17 09:08:24;;;;;;;3.70;1.35;;;28.90;51.60;;;;;;4851726;29;20045;-82
2022/07/17 09:10:53;;;;;;;3.95;1.38;;;28.90;51.60;;;;;;4851964;29;20060;-82
2022/07/17 09:13:18;;;;;;;5.68;1.60;;;29.00;50.80;;;;;;4853179;29;20057;-82
2022/07/17 09:15:45;;;;;;;4.60;1.70;;;29.10;50.40;;;;;;4854660;29;20034;-82
2022/07/17 09:18:10;;;;;;;4.40;1.50;;;29.10;50.70;;;;;;4854777;29;20117;-81
2022/07/17 09:20:49;;;;;;;7.57;1.48;;;29.20;50.30;;;;;;4857241;29;20074;-82
2022/07/17 09:23:16;;;;;;;3.55;2.30;;;29.30;50.30;;;;;;4845816;29;20022;-81
2022/07/17 09:25:45;;;;;;;4.32;1.60;;;29.30;50.10;;;;;;4858050;29;20037;-82
2022/07/17 09:28:13;;;;;;;2.88;1.50;;;29.40;49.80;;;;;;4858817;29;20117;-79
2022/07/17 09:30:45;;;;;;;3.92;1.65;;;29.50;50.20;;;;;;4852942;29;20526;-79
2022/07/17 09:33:29;;;;;;;4.60;1.85;;;29.60;49.60;;;;;;4848954;29;20120;-79
2022/07/17 09:36:05;;;;;;;3.25;1.50;;;29.70;49.20;;;;;;4836676;29;20485;-79
2022/07/17 09:38:36;;;;;;;6.68;1.52;;;29.80;49.10;;;;;;4855100;29;20116;-79
2022/07/17 09:41:15;;;;;;;3.88;1.42;;;29.90;48.40;;;;;;4852867;29;20112;-79
2022/07/17 09:43:57;;;;;;;3.40;1.40;;;29.90;48.30;;;;;;4850107;29;20056;-79
2022/07/17 09:46:24;;;;;;;4.43;1.50;;;30.00;48.30;;;;;;4853932;29;20033;-79
2022/07/17 09:49:01;;;;;;;5.50;1.48;;;30.20;48.20;;;;;;4850701;29;20061;-79
2022/07/17 09:51:33;;;;;;;5.75;1.55;;;30.30;48.10;;;;;;4842127;29;20125;-79
2022/07/17 09:54:02;;;;;;;5.82;1.40;;;30.40;47.80;;;;;;4853199;29;20018;-79
2022/07/17 09:56:30;;;;;;;7.55;1.30;;;30.50;47.50;;;;;;4856963;29;20547;-79
2022/07/17 09:59:10;;;;;;;6.13;1.52;;;30.60;47.40;;;;;;4855626;29;20030;-79
2022/07/17 10:01:38;;;;;;;4.10;1.60;;;30.70;47.10;;;;;;4857692;29;20033;-79
2022/07/17 10:04:04;;;;;;;10.15;1.98;;;30.80;46.80;;;;;;4855075;29;20022;-79
2022/07/17 10:06:30;;;;;;;5.47;1.63;;;30.90;46.60;;;;;;4842745;29;20069;-79
2022/07/17 10:08:56;;;;;;;3.55;1.20;;;30.90;47.10;;;;;;4851920;29;20529;-79
2022/07/17 10:11:28;;;;;;;5.13;1.58;;;31.00;47.90;;;;;;4850172;29;20038;-79
2022/07/17 10:13:56;;;;;;;1.88;1.20;;;31.10;47.90;;;;;;4854025;29;20037;-80
2022/07/17 10:16:26;;;;;;;2.97;1.30;;;31.20;47.50;;;;;;4839699;29;20033;-80
2022/07/17 10:18:54;;;;;;;3.15;1.35;;;31.30;47.20;;;;;;4855324;29;20018;-80
2022/07/17 10:21:21;;;;;;;5.00;1.38;;;31.50;47.30;;;;;;4853928;29;20029;-81
2022/07/17 10:24:06;;;;;;;5.90;1.35;;;31.60;47.20;;;;;;4856261;29;20049;-80
2022/07/17 10:26:44;;;;;;;6.43;1.40;;;31.60;46.30;;;;;;4856272;29;20043;-80
2022/07/17 10:29:28;;;;;;;4.43;1.40;;;31.80;46.50;;;;;;4857735;29;20048;-80
2022/07/17 10:31:55;;;;;;;4.50;1.30;;;31.80;46.70;;;;;;4848494;29;20535;-80
2022/07/17 10:34:44;;;;;;;2.45;1.15;;;31.90;46.20;;;;;;4852338;29;20030;-80
2022/07/17 10:37:25;;;;;;;4.45;1.30;;;32.00;47.00;;;;;;4844338;29;20440;-80
2022/07/17 10:40:00;;;;;;;14.38;2.05;;;32.20;45.90;;;;;;4846311;29;20121;-80
2022/07/17 10:43:05;;;;;;;22.65;2.67;;;32.30;45.60;;;;;;4835656;29;20038;-80
2022/07/17 10:45:45;;;;;;;12.30;2.53;;;32.40;45.50;;;;;;4845748;29;20053;-81
2022/07/17 10:48:13;;;;;;;9.35;1.70;;;32.50;45.50;;;;;;4816825;29;20042;-80
2022/07/17 10:51:06;;;;;;;3.25;1.05;;;32.50;45.50;;;;;;4847360;29;20038;-80
2022/07/17 10:53:33;;;;;;;4.63;1.27;;;32.60;45.30;;;;;;4853758;29;20057;-80
2022/07/17 10:56:07;;;;;;;11.88;1.80;;;32.60;45.00;;;;;;4853397;29;20018;-80
2022/07/17 10:58:35;;;;;;;28.90;3.65;;;32.80;45.30;;;;;;4855536;29;20495;-80
2022/07/17 11:01:10;;;;;;;14.70;2.08;;;32.80;45.10;;;;;;4855013;29;20021;-80
2022/07/17 11:03:44;;;;;;;4.65;1.13;;;32.90;45.30;;;;;;4856904;29;20038;-80
2022/07/17 11:06:21;;;;;;;4.30;1.40;;;33.10;44.70;;;;;;4851670;29;20093;-80
2022/07/17 11:08:56;;;;;;;6.93;1.30;;;33.20;44.80;;;;;;4841637;29;20030;-80
2022/07/17 11:11:35;;;;;;;3.00;1.27;;;33.40;44.70;;;;;;4837353;29;20030;-80
2022/07/17 11:14:27;;;;;;;7.28;1.23;;;33.50;45.20;;;;;;4852196;29;20030;-80
2022/07/17 11:16:54;;;;;;;3.85;1.30;;;33.50;44.80;;;;;;4839459;29;20042;-80
2022/07/17 11:19:26;;;;;;;6.80;1.17;;;33.70;44.50;;;;;;4848916;29;20495;-80
2022/07/17 11:21:53;;;;;;;3.35;1.33;;;33.70;44.40;;;;;;4839259;29;20033;-80
2022/07/17 11:24:18;;;;;;;4.10;1.67;;;33.80;44.20;;;;;;4854339;29;20033;-80
2022/07/17 11:26:44;;;;;;;3.88;1.20;;;33.90;44.00;;;;;;4856462;29;20025;-79
2022/07/17 11:29:11;;;;;;;2.22;1.30;;;34.00;43.60;;;;;;4850950;29;20034;-79
2022/07/17 11:31:36;;;;;;;3.15;1.10;;;34.10;43.90;;;;;;4845515;29;20034;-79
2022/07/17 11:34:06;;;;;;;4.05;1.20;;;34.10;43.80;;;;;;4851736;29;20025;-79
2022/07/17 11:36:41;;;;;;;3.63;1.05;;;34.20;44.10;;;;;;4843199;29;20058;-79
2022/07/17 11:39:16;;;;;;;4.63;1.10;;;34.40;44.10;;;;;;4844230;29;20021;-79
2022/07/17 11:41:47;;;;;;;2.97;1.17;;;34.50;43.90;;;;;;4847460;29;20118;-80
2022/07/17 11:44:15;;;;;;;3.55;1.00;;;34.60;43.40;;;;;;4851402;29;20038;-79
2022/07/17 11:46:44;;;;;;;4.13;1.48;;;34.70;43.60;;;;;;4856008;29;20033;-79
2022/07/17 11:49:11;;;;;;;2.17;1.10;;;34.70;43.60;;;;;;4840477;29;20033;-79
2022/07/17 11:51:43;;;;;;;5.00;1.35;;;35.00;44.10;;;;;;4857298;29;20174;-79
2022/07/17 11:54:14;;;;;;;2.88;1.25;;;35.10;44.20;;;;;;4854802;29;20411;-79
2022/07/17 11:56:41;;;;;;;2.97;1.10;;;35.20;44.00;;;;;;4858372;29;20121;-78
2022/07/17 11:59:08;;;;;;;4.55;1.13;;;35.30;43.60;;;;;;4857319;29;20415;-79
2022/07/17 12:01:44;;;;;;;3.97;1.00;;;35.50;42.90;;;;;;4859690;29;20029;-79
2022/07/17 12:04:14;;;;;;;1.55;0.80;;;35.30;42.70;;;;;;4860074;29;20026;-79
2022/07/17 12:06:41;;;;;;;2.35;1.52;;;35.30;42.90;;;;;;4854686;29;20521;-79
2022/07/17 12:09:07;;;;;;;2.97;1.10;;;35.20;42.90;;;;;;4852497;29;20422;-79
2022/07/17 12:11:44;;;;;;;3.75;1.63;;;35.30;43.50;;;;;;4852917;29;20037;-79
2022/07/17 12:14:09;;;;;;;4.78;0.80;;;35.30;43.80;;;;;;4854127;29;20034;-80
2022/07/17 12:16:36;;;;;;;2.17;1.30;;;35.40;44.00;;;;;;4855373;29;20040;-79
2022/07/17 12:19:08;;;;;;;2.92;1.20;;;35.50;44.00;;;;;;4857109;29;20037;-79
2022/07/17 12:21:53;;;;;;;3.25;1.20;;;35.70;43.90;;;;;;4856709;29;20029;-79
2022/07/17 12:24:28;;;;;;;1.48;0.80;;;35.90;43.50;;;;;;4857598;29;20044;-79
2022/07/17 12:26:56;;;;;;;5.57;1.10;;;36.20;42.90;;;;;;4858062;29;20057;-79
2022/07/17 12:29:22;;;;;;;5.18;1.30;;;36.10;43.10;;;;;;4858554;29;20105;-79
2022/07/17 12:31:48;;;;;;;5.05;1.10;;;36.20;43.10;;;;;;4842830;29;20075;-79
2022/07/17 12:34:14;;;;;;;3.35;1.00;;;36.20;43.00;;;;;;4854799;29;20061;-79
2022/07/17 12:36:39;;;;;;;2.67;1.15;;;36.20;42.60;;;;;;4842740;29;20555;-79
2022/07/17 12:39:05;;;;;;;1.42;1.05;;;36.30;43.60;;;;;;4859593;29;20029;-83
2022/07/17 12:41:31;;;;;;;4.18;1.05;;;36.50;42.50;;;;;;4853881;29;20041;-80
2022/07/17 12:43:57;;;;;;;3.60;0.80;;;36.70;42.70;;;;;;4848987;29;20022;-80
2022/07/17 12:46:23;;;;;;;3.55;1.27;;;36.70;43.00;;;;;;4854292;29;20030;-84
2022/07/17 12:48:48;;;;;;;2.50;1.17;;;36.90;42.60;;;;;;4851948;29;20106;-84